Mound, TX (76558)

2:18 AM CDT on August 20, 2014 (GMT -0500)
GATESVILLE, TX (12 Miles SE) | Change Station
CLOSE
Current Station
Personal Weather Station
Location: Leon Junction, TX
Elevation: 760 ft
Nearby Weather Stations

Elev 760 ft 31.34 °N, 97.57 °W | Updated 11 seconds ago

Clear
Clear
82.4 °F
Feels Like 88 °F
N
8.0
Wind Variable Wind from SE
Gusts 13.0 mph

Today
High -- | Low -- °F
--% Chance of Precip.
Yesterday
High -- | Low -- °F
Precip. -- in
6:58 AM 8:07 PM
Waning Crescent, 24% visible
Pressure 29.91 in
Visibility 10.0 miles
Clouds Clear
Heat Index 88 °F
Dew Point 73 °F
Humidity 74%
Rainfall 0.00 in
Snow Depth Not available.
UV 0 out of 12
Pollen 7.50 out of 12
Ozone Good
PM2.5 Moderate
Flu Activity Not available.
METAR KHLR 200656Z 15010G19KT 10SM CLR 28/21 A2991 RMK AO2 SLPNO T02830211

More Conditions Fewer Conditions

Pressure 29.91 in
Visibility 10.0 miles
Clouds Clear
Heat Index 88 °F
Dew Point 73 °F
Humidity 74%
Rainfall 0.00 in
Snow Depth Not available.
UV 0 out of 12
Pollen 7.50 out of 12
Ozone Good
PM2.5 Moderate
Flu Activity Not available.
METAR KHLR 200656Z 15010G19KT 10SM CLR 28/21 A2991 RMK AO2 SLPNO T02830211

More Conditions Fewer Conditions

Nowcast | as of 1:15 am CDT on August 20, 2014

Isolated showers and thunderstorms are possible north of a Cisco... to Mineral Wells...to Denton...to Bonham line through 4 am CDT. Scattered sprinkles are expected elsewhere through the predawn hours. All activity will move northeast at 20 mph. Rainfall will generally be a trace to a few hundredths...except isolated amounts to 1/4 of an inch with any thunderstorms. Southeast winds will continue at 10 to 15 mph with temperatures in the 70s...except low to mid 80s across immediate urban areas.

×

10-Day Weather Forecast

Almanac

Astronomy

Aug. 20, 2014 Rise Set
Actual Time 6:58 AM CDT 8:07 PM CDT
Civil Twilight 6:33 AM CDT 8:33 PM CDT
Nautical Twilight 6:03 AM CDT 9:02 PM CDT
Astronomical Twilight 5:32 AM CDT 9:33 PM CDT
Moon 2:46 AM CDT 4:47 PM CDT
Length of Visible Light 13h 59m
Length of Day
13h 08m
Tomorrow will be 1m 43s shorter.
Waning Crescent, 24% of the Moon is Illuminated
Today
Waning Crescent
Aug 25
New
Sep 2
First Quarter
Sep 8
Full
Sep 15
Last Quarter

Today's Extremes

State Highs State Lows

Community

WunderPhotos

Upload Photos

1,745,592 photos uploaded!

Nearby

Air Quality

  Air Quality AQ Index Pollutant
Yesterday Moderate
PM2.5
Yesterday Good
OZONE
Current Moderate
PM2.5
Current Good
OZONE
Wednesday Good
PM10
Wednesday Good
OZONE
Thursday Good
PM10
Thursday Good
OZONE
Friday Good
PM10
Friday Good
OZONE

Snow Depth

Station Depth Elevation
No new snow has been reported.

Earthquake Activity

City Distance Mag. Time & Date
No recent earthquake activity has been reported nearby.
Minimum magnitude displayed is 2.5.

Coastal Water Temperatures

Place Temperature
No Stations Reporting

Nearby Weather Stations